createdAt,value
2022-11-23T00:02:13.337Z,9.57
2022-11-23T00:04:40.305Z,9.53
2022-11-23T00:07:07.148Z,8.53
2022-11-23T00:09:34.123Z,8.30
2022-11-23T00:12:01.108Z,6.93
2022-11-23T00:14:27.949Z,6.77
2022-11-23T00:16:54.686Z,6.43
2022-11-23T00:19:21.654Z,6.77
2022-11-23T00:21:48.556Z,7.67
2022-11-23T00:24:15.270Z,7.70
2022-11-23T00:26:42.123Z,9.77
2022-11-23T00:29:08.964Z,7.20
2022-11-23T00:31:35.968Z,6.40
2022-11-23T00:34:02.883Z,5.53
2022-11-23T00:36:29.774Z,4.87
2022-11-23T00:38:58.772Z,4.27
2022-11-23T00:41:27.321Z,5.67
2022-11-23T00:43:54.277Z,6.67
2022-11-23T00:46:26.134Z,7.43
2022-11-23T00:48:54.929Z,6.03
2022-11-23T00:51:28.523Z,6.47
2022-11-23T00:53:55.698Z,6.30
2022-11-23T00:56:22.577Z,7.00
2022-11-23T00:58:50.710Z,8.43
2022-11-23T01:01:19.748Z,7.93
2022-11-23T01:03:51.153Z,7.80
2022-11-23T01:06:20.770Z,7.57
2022-11-23T01:08:52.370Z,6.03
2022-11-23T01:11:20.588Z,5.87
2022-11-23T01:13:48.102Z,5.40
2022-11-23T01:16:23.583Z,4.60
2022-11-23T01:18:55.677Z,5.73
2022-11-23T01:21:23.432Z,4.53
2022-11-23T01:23:50.420Z,4.63
2022-11-23T01:26:17.155Z,5.00
2022-11-23T01:28:44.129Z,5.13
2022-11-23T01:31:14.047Z,4.77
2022-11-23T01:33:40.969Z,4.10
2022-11-23T01:36:11.578Z,4.20
2022-11-23T01:38:38.359Z,4.70
2022-11-23T01:41:06.855Z,3.80
2022-11-23T01:43:33.822Z,4.87
2022-11-23T01:46:01.894Z,5.43
2022-11-23T01:48:39.280Z,5.73
2022-11-23T01:51:11.098Z,5.50
2022-11-23T01:53:38.806Z,6.20
2022-11-23T01:56:08.307Z,5.37
2022-11-23T01:58:39.109Z,5.63
2022-11-23T02:01:07.292Z,5.70
2022-11-23T02:03:36.564Z,5.50
2022-11-23T02:06:07.600Z,4.73
2022-11-23T02:08:35.083Z,5.17
2022-11-23T02:11:02.185Z,4.63
2022-11-23T02:13:29.526Z,5.47
2022-11-23T02:15:57.966Z,5.07
2022-11-23T02:18:29.221Z,5.57
2022-11-23T02:20:57.711Z,5.50
2022-11-23T02:23:43.274Z,5.40
2022-11-23T02:26:17.752Z,4.40
2022-11-23T02:28:52.887Z,4.93
2022-11-23T02:31:19.658Z,5.37
2022-11-23T02:33:46.336Z,5.20
2022-11-23T02:36:43.230Z,4.63
2022-11-23T02:39:18.513Z,4.00
2022-11-23T02:41:51.476Z,5.23
2022-11-23T02:44:55.554Z,4.70
2022-11-23T02:47:22.400Z,4.17
2022-11-23T02:49:49.857Z,4.57
2022-11-23T02:52:17.745Z,5.10
2022-11-23T02:54:44.856Z,4.67
2022-11-23T02:57:11.604Z,5.37
2022-11-23T02:59:38.264Z,4.93
2022-11-23T03:02:05.917Z,4.90
2022-11-23T03:04:32.922Z,5.07
2022-11-23T03:06:59.611Z,5.43
2022-11-23T03:09:26.592Z,4.90
2022-11-23T03:11:53.878Z,4.47
2022-11-23T03:14:21.237Z,4.67
2022-11-23T03:16:47.967Z,4.20
2022-11-23T03:19:15.358Z,5.13
2022-11-23T03:21:42.070Z,5.43
2022-11-23T03:24:08.797Z,5.17
2022-11-23T03:26:37.906Z,5.00
2022-11-23T03:29:05.392Z,4.63
2022-11-23T03:31:32.126Z,5.20
2022-11-23T03:33:58.868Z,4.60
2022-11-23T03:36:25.774Z,4.93
2022-11-23T03:38:52.470Z,4.73
2022-11-23T03:41:19.212Z,5.63
2022-11-23T03:43:45.935Z,4.97
2022-11-23T03:46:12.813Z,4.87
2022-11-23T03:48:39.567Z,5.20
2022-11-23T03:51:06.462Z,5.20
2022-11-23T03:53:33.238Z,5.60
2022-11-23T03:56:00.311Z,5.10
2022-11-23T03:58:27.072Z,5.23
2022-11-23T04:00:55.114Z,6.20
2022-11-23T04:03:22.114Z,5.07
2022-11-23T04:05:49.189Z,5.03
2022-11-23T04:08:16.042Z,5.30
2022-11-23T04:10:42.704Z,4.67
2022-11-23T04:13:09.421Z,4.57
2022-11-23T04:15:36.203Z,4.53
2022-11-23T04:18:03.073Z,4.87
2022-11-23T04:20:29.949Z,4.87
2022-11-23T04:22:56.858Z,4.37
2022-11-23T04:25:23.731Z,4.40
2022-11-23T04:27:50.389Z,4.50
2022-11-23T04:30:17.251Z,4.83
2022-11-23T04:32:47.128Z,4.67
2022-11-23T04:35:13.908Z,4.33
2022-11-23T04:37:40.587Z,4.57
2022-11-23T04:40:08.143Z,4.90
2022-11-23T04:42:34.930Z,4.53
2022-11-23T04:45:01.676Z,4.97
2022-11-23T04:47:28.455Z,4.70
2022-11-23T04:49:55.128Z,4.40
2022-11-23T04:52:21.869Z,4.70
2022-11-23T04:54:48.722Z,4.00
2022-11-23T04:57:15.472Z,4.23
2022-11-23T04:59:42.210Z,4.70
2022-11-23T05:02:08.931Z,4.37
2022-11-23T05:04:36.030Z,4.73
2022-11-23T05:07:03.258Z,4.33
2022-11-23T05:09:30.221Z,3.87
2022-11-23T05:11:57.776Z,3.90
2022-11-23T05:14:24.632Z,4.27
2022-11-23T05:16:51.985Z,4.23
2022-11-23T05:19:18.706Z,4.83
2022-11-23T05:21:45.460Z,4.40
2022-11-23T05:24:12.409Z,5.50
2022-11-23T05:26:39.164Z,5.30
2022-11-23T05:29:05.940Z,6.80
2022-11-23T05:31:32.726Z,5.67
2022-11-23T05:33:59.529Z,6.60
2022-11-23T05:36:26.307Z,5.27
2022-11-23T05:38:53.099Z,5.60
2022-11-23T05:41:19.891Z,5.07
2022-11-23T05:43:46.636Z,5.37
2022-11-23T05:46:13.429Z,5.03
2022-11-23T05:48:40.202Z,5.13
2022-11-23T05:51:07.020Z,4.57
2022-11-23T05:53:34.106Z,4.57
2022-11-23T05:56:02.183Z,4.43
2022-11-23T05:58:29.311Z,3.97
2022-11-23T06:01:00.275Z,4.50
2022-11-23T06:03:27.480Z,3.93
2022-11-23T06:05:54.265Z,5.30
2022-11-23T06:08:20.953Z,4.67
2022-11-23T06:10:47.843Z,4.70
2022-11-23T06:13:14.583Z,4.97
2022-11-23T06:15:41.823Z,4.67
2022-11-23T06:18:09.552Z,5.03
2022-11-23T06:20:36.298Z,4.80
2022-11-23T06:23:03.095Z,6.60
2022-11-23T06:25:30.105Z,5.47
2022-11-23T06:27:58.734Z,4.87
2022-11-23T06:30:27.403Z,4.13
2022-11-23T06:32:54.143Z,5.47
2022-11-23T06:35:21.248Z,5.43
2022-11-23T06:37:49.623Z,4.57
2022-11-23T06:40:17.045Z,4.77
2022-11-23T06:42:43.825Z,4.13
2022-11-23T06:45:12.580Z,4.20
2022-11-23T06:47:39.433Z,6.17
2022-11-23T06:50:07.079Z,5.70
2022-11-23T06:52:33.797Z,6.13
2022-11-23T06:55:00.559Z,6.23
2022-11-23T06:57:27.367Z,6.67
2022-11-23T06:59:54.094Z,7.77
2022-11-23T07:02:20.878Z,7.00
2022-11-23T07:04:47.903Z,8.23
2022-11-23T07:07:14.767Z,8.97
2022-11-23T07:09:41.632Z,8.20
2022-11-23T07:12:08.461Z,8.90
2022-11-23T07:14:35.383Z,8.33
2022-11-23T07:17:02.411Z,6.73
2022-11-23T07:19:29.507Z,6.53
2022-11-23T07:21:56.477Z,5.13
2022-11-23T07:24:23.223Z,4.70
2022-11-23T07:26:51.011Z,5.23
2022-11-23T07:29:17.800Z,5.90
2022-11-23T07:31:44.770Z,5.17
2022-11-23T07:34:11.747Z,4.40
2022-11-23T07:36:38.769Z,5.07
2022-11-23T07:39:05.726Z,5.27
2022-11-23T07:41:32.744Z,4.63
2022-11-23T07:43:59.726Z,4.10
2022-11-23T07:46:26.861Z,4.67
2022-11-23T07:48:54.569Z,5.00
2022-11-23T07:51:21.504Z,4.67
2022-11-23T07:53:48.276Z,4.87
2022-11-23T07:56:14.987Z,5.03
2022-11-23T07:58:41.836Z,5.10
2022-11-23T08:01:08.724Z,5.57
2022-11-23T08:03:35.603Z,5.10
2022-11-23T08:06:02.763Z,5.00
2022-11-23T08:08:29.626Z,4.40
2022-11-23T08:10:56.721Z,5.30
2022-11-23T08:13:23.589Z,5.50
2022-11-23T08:15:55.701Z,5.03
2022-11-23T08:18:24.136Z,4.70
2022-11-23T08:20:50.945Z,4.57
2022-11-23T08:23:17.920Z,5.60
2022-11-23T08:25:44.690Z,5.33
2022-11-23T08:28:12.426Z,5.67
2022-11-23T08:30:39.537Z,5.00
2022-11-23T08:33:07.482Z,7.27
2022-11-23T08:35:39.349Z,6.63
2022-11-23T08:38:07.535Z,7.30
2022-11-23T08:40:34.806Z,7.27
2022-11-23T08:43:01.817Z,8.03
2022-11-23T08:45:28.958Z,9.87
2022-11-23T08:48:00.953Z,8.07
2022-11-23T08:50:29.288Z,8.27
2022-11-23T08:52:57.978Z,6.37
2022-11-23T08:55:26.913Z,4.90
2022-11-23T08:57:58.397Z,5.90
2022-11-23T09:00:26.722Z,7.50
2022-11-23T09:02:53.647Z,15.60
2022-11-23T09:05:20.649Z,13.07
2022-11-23T09:07:48.129Z,7.83
2022-11-23T09:10:18.839Z,6.17
2022-11-23T09:12:47.526Z,5.23
2022-11-23T09:15:14.618Z,5.70
2022-11-23T09:17:41.612Z,5.87
2022-11-23T09:20:10.094Z,5.03
2022-11-23T09:22:37.344Z,5.00
2022-11-23T09:25:06.866Z,5.37
2022-11-23T09:27:34.279Z,5.20
2022-11-23T09:30:01.097Z,5.10
2022-11-23T09:32:28.597Z,5.93
2022-11-23T09:34:56.218Z,5.80
2022-11-23T09:37:23.266Z,6.50
2022-11-23T09:39:50.083Z,5.83
2022-11-23T09:42:40.860Z,5.50
2022-11-23T09:45:30.522Z,4.80
2022-11-23T09:48:38.870Z,5.47
2022-11-23T09:51:13.437Z,5.23
2022-11-23T09:53:47.692Z,6.20
2022-11-23T09:56:19.531Z,5.40
2022-11-23T09:58:47.106Z,4.97
2022-11-23T10:01:17.267Z,5.50
2022-11-23T10:03:48.846Z,5.50
2022-11-23T10:06:27.814Z,5.13
2022-11-23T10:09:01.497Z,5.53
2022-11-23T10:12:02.749Z,4.23
2022-11-23T10:14:41.581Z,5.43
2022-11-23T10:17:32.010Z,4.80
2022-11-23T10:20:17.935Z,4.67
2022-11-23T10:22:58.999Z,3.70
2022-11-23T10:25:39.716Z,3.53
2022-11-23T10:28:14.944Z,4.23
2022-11-23T10:30:42.088Z,3.93
2022-11-23T10:33:29.124Z,3.90
2022-11-23T10:35:56.070Z,3.57
2022-11-23T10:38:27.154Z,3.77
2022-11-23T10:41:03.344Z,3.70
2022-11-23T10:43:43.483Z,4.20
2022-11-23T10:46:37.762Z,4.23
2022-11-23T10:49:16.441Z,3.17
2022-11-23T10:52:27.797Z,3.00
2022-11-23T10:54:56.481Z,3.80
2022-11-23T10:57:37.144Z,4.03
2022-11-23T11:00:14.750Z,2.80
2022-11-23T11:02:50.628Z,3.37
2022-11-23T11:06:01.149Z,2.67
2022-11-23T11:08:19.853Z,2.70
2022-11-23T11:10:52.189Z,2.40
2022-11-23T11:13:48.585Z,2.70
2022-11-23T11:16:36.730Z,2.80
2022-11-23T11:19:27.121Z,2.97
2022-11-23T11:21:54.003Z,2.13
2022-11-23T11:24:38.856Z,2.57
2022-11-23T11:27:14.369Z,3.17
2022-11-23T11:29:44.527Z,2.40
2022-11-23T11:32:20.005Z,1.73
2022-11-23T11:34:58.626Z,2.77
2022-11-23T11:37:38.715Z,2.10
2022-11-23T11:40:37.129Z,1.70
2022-11-23T11:43:23.046Z,1.37
2022-11-23T11:46:28.909Z,1.83
2022-11-23T11:49:18.215Z,1.80
2022-11-23T11:51:50.021Z,1.43
2022-11-23T11:54:37.170Z,1.60
2022-11-23T11:57:26.043Z,1.60
2022-11-23T12:00:02.439Z,1.43
2022-11-23T12:02:36.311Z,1.43
2022-11-23T12:05:15.318Z,1.80
2022-11-23T12:07:57.969Z,1.50
2022-11-23T12:10:29.905Z,1.50
2022-11-23T12:12:57.124Z,1.40
2022-11-23T12:15:55.678Z,1.63
2022-11-23T12:18:41.194Z,1.63
2022-11-23T12:21:24.277Z,1.73
2022-11-23T12:24:17.663Z,1.93
2022-11-23T12:26:56.389Z,1.90
2022-11-23T12:29:53.907Z,1.60
2022-11-23T12:32:51.741Z,1.73
2022-11-23T12:35:27.387Z,1.70
2022-11-23T12:38:05.850Z,1.50
2022-11-23T12:41:11.305Z,1.63
2022-11-23T12:44:09.553Z,1.30
2022-11-23T12:47:11.704Z,1.53
2022-11-23T12:49:52.040Z,2.10
2022-11-23T12:52:43.079Z,1.33
2022-11-23T12:55:29.182Z,1.60
2022-11-23T12:58:05.776Z,2.10
2022-11-23T13:00:41.967Z,2.10
2022-11-23T13:03:30.803Z,1.73
2022-11-23T13:06:31.377Z,1.90
2022-11-23T13:09:14.556Z,1.83
2022-11-23T13:12:02.641Z,1.70
2022-11-23T13:14:47.511Z,1.70
2022-11-23T13:17:32.508Z,1.70
2022-11-23T13:20:39.501Z,2.20
2022-11-23T13:23:07.076Z,2.00
2022-11-23T13:25:33.914Z,1.43
2022-11-23T13:28:03.958Z,1.87
2022-11-23T13:30:59.024Z,1.47
2022-11-23T13:33:30.469Z,2.00
2022-11-23T13:36:07.110Z,1.53
2022-11-23T13:38:39.781Z,1.90
2022-11-23T13:41:38.966Z,1.77
2022-11-23T13:44:21.397Z,1.83
2022-11-23T13:47:14.782Z,1.40
2022-11-23T13:49:45.836Z,1.47
2022-11-23T13:52:21.904Z,1.73
2022-11-23T13:55:10.931Z,1.43
2022-11-23T13:57:43.763Z,1.90
2022-11-23T14:00:48.413Z,1.50
2022-11-23T14:03:44.140Z,1.43
2022-11-23T14:06:22.628Z,1.83
2022-11-23T14:09:19.192Z,1.83
2022-11-23T14:11:57.202Z,1.70
2022-11-23T14:14:31.634Z,1.50
2022-11-23T14:17:29.463Z,1.60
2022-11-23T14:20:17.728Z,1.70
2022-11-23T14:23:02.494Z,1.97
2022-11-23T14:25:58.331Z,2.03
2022-11-23T14:28:49.858Z,2.00
2022-11-23T14:31:39.334Z,1.90
2022-11-23T14:34:29.321Z,2.40
2022-11-23T14:37:22.337Z,3.10
2022-11-23T14:40:05.645Z,2.03
2022-11-23T14:42:37.563Z,1.80
2022-11-23T14:45:06.656Z,1.73
2022-11-23T14:47:33.702Z,1.80
2022-11-23T14:50:00.621Z,2.03
2022-11-23T14:52:34.938Z,2.97
2022-11-23T14:55:05.765Z,4.37
2022-11-23T14:57:45.795Z,3.30
2022-11-23T15:00:43.511Z,2.20
2022-11-23T15:03:49.493Z,2.80
2022-11-23T15:06:13.220Z,2.40
2022-11-23T15:08:56.905Z,3.00
2022-11-23T15:11:28.967Z,3.23
2022-11-23T15:14:02.240Z,2.30
2022-11-23T15:16:30.076Z,2.37
2022-11-23T15:18:57.260Z,3.07
2022-11-23T15:21:27.836Z,3.37
2022-11-23T15:23:57.908Z,3.67
2022-11-23T15:26:47.329Z,4.90
2022-11-23T15:29:38.370Z,5.13
2022-11-23T15:32:30.407Z,4.93
2022-11-23T15:35:02.792Z,5.77
2022-11-23T15:37:30.596Z,5.27
2022-11-23T15:39:57.913Z,5.40
2022-11-23T15:42:26.510Z,4.93
2022-11-23T15:44:55.145Z,5.03
2022-11-23T15:47:40.250Z,5.47
2022-11-23T15:50:10.237Z,5.13
2022-11-23T15:52:38.247Z,4.53
2022-11-23T15:55:09.697Z,11.67
2022-11-23T15:57:38.199Z,8.40
2022-11-23T16:00:06.717Z,8.27
2022-11-23T16:02:33.575Z,7.90
2022-11-23T16:05:23.993Z,9.43
2022-11-23T16:07:59.702Z,6.97
2022-11-23T16:10:35.164Z,6.40
2022-11-23T16:13:04.659Z,5.80
2022-11-23T16:15:34.310Z,5.90
2022-11-23T16:18:02.276Z,7.47
2022-11-23T16:20:30.107Z,6.83
2022-11-23T16:23:00.114Z,6.70
2022-11-23T16:25:33.255Z,5.07
2022-11-23T16:28:06.328Z,5.20
2022-11-23T16:30:47.648Z,5.13
2022-11-23T16:33:17.110Z,5.40
2022-11-23T16:35:44.363Z,4.63
2022-11-23T16:38:12.678Z,4.30
2022-11-23T16:40:40.643Z,5.37
2022-11-23T16:43:07.836Z,4.90
2022-11-23T16:45:34.538Z,6.17
2022-11-23T16:48:03.355Z,6.23
2022-11-23T16:50:33.036Z,5.17
2022-11-23T16:53:13.017Z,5.83
2022-11-23T16:55:43.558Z,7.70
2022-11-23T16:58:15.378Z,6.40
2022-11-23T17:00:42.863Z,6.53
2022-11-23T17:03:20.846Z,7.13
2022-11-23T17:05:48.411Z,8.37
2022-11-23T17:08:21.661Z,8.03
2022-11-23T17:10:51.312Z,8.43
2022-11-23T17:13:28.649Z,8.00
2022-11-23T17:15:55.788Z,7.93
2022-11-23T17:18:22.721Z,7.20
2022-11-23T17:20:53.062Z,6.43
2022-11-23T17:23:19.816Z,6.30
2022-11-23T17:25:46.554Z,6.30
2022-11-23T17:28:21.367Z,6.30
2022-11-23T17:30:48.996Z,7.70
2022-11-23T17:33:16.062Z,6.80
2022-11-23T17:35:43.228Z,5.07
2022-11-23T17:38:16.952Z,5.43
2022-11-23T17:40:43.747Z,5.63
2022-11-23T17:43:14.717Z,6.03
2022-11-23T17:45:41.896Z,4.83
2022-11-23T17:48:12.722Z,5.03
2022-11-23T17:50:39.576Z,3.93
2022-11-23T17:53:06.647Z,3.67
2022-11-23T17:55:33.746Z,3.93
2022-11-23T17:58:00.526Z,4.27
2022-11-23T18:00:29.779Z,3.40
2022-11-23T18:02:56.613Z,3.87
2022-11-23T18:05:23.437Z,3.83
2022-11-23T18:07:53.399Z,3.87
2022-11-23T18:10:20.396Z,4.13
2022-11-23T18:12:47.680Z,3.77
2022-11-23T18:15:15.194Z,2.70
2022-11-23T18:17:42.266Z,3.77
2022-11-23T18:20:10.209Z,4.70
2022-11-23T18:22:37.530Z,3.23
2022-11-23T18:25:04.546Z,3.40
2022-11-23T18:27:31.281Z,4.23
2022-11-23T18:29:58.063Z,3.83
2022-11-23T18:32:24.866Z,3.70
2022-11-23T18:34:51.664Z,3.20
2022-11-23T18:37:18.434Z,2.83
2022-11-23T18:39:45.227Z,2.20
2022-11-23T18:42:12.048Z,3.87
2022-11-23T18:44:38.717Z,3.87
2022-11-23T18:47:05.603Z,3.30
2022-11-23T18:49:32.699Z,3.30
2022-11-23T18:51:59.672Z,3.60
2022-11-23T18:54:26.390Z,3.37
2022-11-23T18:56:53.068Z,4.70
2022-11-23T18:59:49.954Z,3.30
2022-11-23T19:02:09.423Z,2.87
2022-11-23T19:04:36.255Z,2.80
2022-11-23T19:07:02.925Z,3.37
2022-11-23T19:09:29.651Z,3.87
2022-11-23T19:11:56.782Z,3.53
2022-11-23T19:14:23.497Z,4.47
2022-11-23T19:16:50.199Z,3.40
2022-11-23T19:19:18.558Z,4.17
2022-11-23T19:21:45.439Z,3.57
2022-11-23T19:24:12.853Z,3.47
2022-11-23T19:26:39.589Z,3.20
2022-11-23T19:29:06.498Z,2.93
2022-11-23T19:31:33.738Z,2.87
2022-11-23T19:34:02.520Z,3.20
2022-11-23T19:36:30.896Z,4.20
2022-11-23T19:38:58.232Z,3.60
2022-11-23T19:41:29.761Z,3.57
2022-11-23T19:43:59.041Z,3.47
2022-11-23T19:46:26.532Z,4.30
2022-11-23T19:48:54.681Z,4.60
2022-11-23T19:51:21.569Z,3.60
2022-11-23T19:53:49.400Z,3.10
2022-11-23T19:56:19.218Z,3.87
2022-11-23T19:58:51.435Z,3.40
2022-11-23T20:01:20.741Z,3.50
2022-11-23T20:03:50.871Z,3.73
2022-11-23T20:06:26.969Z,4.77
2022-11-23T20:08:58.490Z,5.33
2022-11-23T20:11:26.392Z,5.33
2022-11-23T20:13:54.705Z,4.53
2022-11-23T20:16:22.798Z,4.10
2022-11-23T20:18:56.906Z,3.80
2022-11-23T20:21:23.673Z,3.90
2022-11-23T20:23:59.913Z,3.83
2022-11-23T20:26:30.325Z,3.67
2022-11-23T20:28:58.754Z,3.40
2022-11-23T20:31:28.440Z,3.07
2022-11-23T20:33:56.725Z,3.37
2022-11-23T20:36:25.612Z,4.30
2022-11-23T20:38:53.218Z,3.70
2022-11-23T20:41:32.328Z,4.23
2022-11-23T20:44:00.957Z,3.87
2022-11-23T20:46:59.897Z,4.00
2022-11-23T20:49:17.287Z,3.83
2022-11-23T20:51:44.006Z,4.30
2022-11-23T20:54:10.867Z,3.17
2022-11-23T20:56:40.698Z,3.10
2022-11-23T20:59:07.447Z,3.60
2022-11-23T21:01:34.644Z,5.13
2022-11-23T21:04:01.540Z,5.33
2022-11-23T21:06:28.676Z,4.23
2022-11-23T21:08:56.007Z,4.47
2022-11-23T21:11:43.896Z,3.50
2022-11-23T21:14:23.187Z,4.03
2022-11-23T21:16:55.996Z,3.70
2022-11-23T21:19:25.005Z,4.60
2022-11-23T21:21:52.406Z,4.83
2022-11-23T21:24:20.453Z,4.50
2022-11-23T21:26:47.655Z,4.30
2022-11-23T21:29:16.252Z,4.23
2022-11-23T21:31:45.998Z,4.60
2022-11-23T21:34:23.221Z,4.63
2022-11-23T21:36:50.585Z,4.07
2022-11-23T21:39:17.964Z,4.47
2022-11-23T21:41:45.343Z,4.27
2022-11-23T21:44:12.370Z,4.43
2022-11-23T21:46:41.040Z,4.47
2022-11-23T21:49:08.490Z,4.40
2022-11-23T21:51:37.163Z,4.53
2022-11-23T21:54:09.866Z,4.43
2022-11-23T21:56:36.693Z,4.87
2022-11-23T21:59:03.495Z,3.60
2022-11-23T22:01:35.455Z,4.17
2022-11-23T22:04:15.254Z,3.97
2022-11-23T22:06:44.472Z,3.43
2022-11-23T22:09:12.164Z,4.73
2022-11-23T22:11:41.187Z,3.37
2022-11-23T22:14:11.768Z,3.37
2022-11-23T22:16:41.624Z,3.80
2022-11-23T22:19:11.813Z,3.50
2022-11-23T22:21:39.701Z,3.00
2022-11-23T22:24:09.448Z,3.27
2022-11-23T22:26:36.400Z,3.57
2022-11-23T22:29:06.162Z,3.67
2022-11-23T22:31:34.377Z,3.50
2022-11-23T22:34:02.769Z,3.37
2022-11-23T22:36:29.977Z,3.37
2022-11-23T22:39:01.767Z,3.37
2022-11-23T22:41:30.398Z,3.40
2022-11-23T22:43:57.433Z,3.10
2022-11-23T22:46:25.288Z,3.30
2022-11-23T22:48:53.153Z,3.97
2022-11-23T22:51:22.749Z,3.40
2022-11-23T22:53:57.585Z,3.30
2022-11-23T22:56:25.689Z,3.57
2022-11-23T22:58:52.605Z,3.90
2022-11-23T23:01:24.967Z,3.60
2022-11-23T23:03:56.650Z,3.23
2022-11-23T23:06:25.763Z,3.00
2022-11-23T23:08:58.154Z,3.00
2022-11-23T23:11:27.109Z,3.17
2022-11-23T23:13:54.547Z,5.47
2022-11-23T23:16:21.490Z,3.40
2022-11-23T23:18:50.382Z,3.33
2022-11-23T23:21:20.547Z,3.10
2022-11-23T23:23:53.119Z,3.30
2022-11-23T23:26:23.378Z,3.10
2022-11-23T23:28:55.528Z,3.20
2022-11-23T23:31:22.608Z,2.80
2022-11-23T23:33:55.857Z,2.73
2022-11-23T23:36:24.437Z,4.27
2022-11-23T23:38:51.718Z,3.07
2022-11-23T23:41:18.931Z,2.90
2022-11-23T23:43:48.124Z,2.50
2022-11-23T23:46:15.095Z,3.00
2022-11-23T23:48:42.044Z,2.97
2022-11-23T23:51:14.347Z,2.90
2022-11-23T23:53:41.884Z,2.53
2022-11-23T23:56:19.869Z,2.60
2022-11-23T23:58:46.842Z,2.93
